createdAt,value
2019-05-23T00:01:43.168Z,9.90
2019-05-23T00:04:25.326Z,9.50
2019-05-23T00:06:54.015Z,10.20
2019-05-23T00:09:23.891Z,9.60
2019-05-23T00:12:13.914Z,9.50
2019-05-23T00:14:47.183Z,9.30
2019-05-23T00:19:46.113Z,9.30
2019-05-23T00:22:14.712Z,9.70
2019-05-23T00:24:43.748Z,9.60
2019-05-23T00:30:22.649Z,9.30
2019-05-23T00:32:52.879Z,9.40
2019-05-23T00:35:21.506Z,9.20
2019-05-23T00:37:51.398Z,9.40
2019-05-23T00:40:20.863Z,9.20
2019-05-23T00:42:50.702Z,9.50
2019-05-23T00:45:21.440Z,9.50
2019-05-23T00:47:51.850Z,9.40
2019-05-23T00:50:21.568Z,9.30
2019-05-23T00:52:51.036Z,9.30
2019-05-23T00:55:20.411Z,9.30
2019-05-23T01:00:21.261Z,9.20
2019-05-23T01:02:49.858Z,8.90
2019-05-23T01:05:18.792Z,9.00
2019-05-23T01:07:48.362Z,9.20
2019-05-23T01:10:18.845Z,8.90
2019-05-23T01:12:48.059Z,8.90
2019-05-23T01:15:16.697Z,8.80
2019-05-23T01:17:46.360Z,9.00
2019-05-23T01:20:21.084Z,8.90
2019-05-23T01:22:50.452Z,9.10
2019-05-23T01:27:51.130Z,9.20
2019-05-23T01:30:21.987Z,9.10
2019-05-23T01:32:54.908Z,9.20
2019-05-23T01:35:24.434Z,9.00
2019-05-23T01:37:53.478Z,9.00
2019-05-23T01:40:22.380Z,8.90
2019-05-23T01:42:51.488Z,9.20
2019-05-23T01:45:20.785Z,9.10
2019-05-23T01:50:22.715Z,9.20
2019-05-23T01:52:52.863Z,9.00
2019-05-23T01:55:21.797Z,8.80
2019-05-23T01:57:51.265Z,8.90
2019-05-23T02:00:21.476Z,8.90
2019-05-23T02:02:50.957Z,8.80
2019-05-23T02:07:48.673Z,9.00
2019-05-23T02:10:17.657Z,8.90
2019-05-23T02:12:47.732Z,8.80
2019-05-23T02:15:16.720Z,8.90
2019-05-23T02:17:46.503Z,8.80
2019-05-23T02:20:18.953Z,8.90
2019-05-23T02:22:48.787Z,8.90
2019-05-23T02:25:21.590Z,8.90
2019-05-23T02:27:50.972Z,8.80
2019-05-23T02:32:52.148Z,8.60
2019-05-23T02:35:21.413Z,8.50
2019-05-23T02:37:51.695Z,8.40
2019-05-23T02:40:22.727Z,8.40
2019-05-23T02:42:53.274Z,8.20
2019-05-23T02:55:35.621Z,8.20
2019-05-23T02:58:08.878Z,8.60
2019-05-23T03:00:54.168Z,8.30
2019-05-23T03:03:19.523Z,8.60
2019-05-23T03:05:50.415Z,8.70
2019-05-23T03:08:20.032Z,8.40
2019-05-23T03:11:08.281Z,8.50
2019-05-23T03:13:38.040Z,8.50
2019-05-23T03:16:07.973Z,8.50
2019-05-23T03:18:40.154Z,8.60
2019-05-23T03:21:09.173Z,8.50
2019-05-23T03:23:37.781Z,8.50
2019-05-23T03:26:28.671Z,8.50
2019-05-23T03:28:57.297Z,8.60
2019-05-23T03:31:32.116Z,8.20
2019-05-23T03:33:58.866Z,8.30
2019-05-23T03:36:28.567Z,8.80
2019-05-23T03:38:58.049Z,8.50
2019-05-23T03:41:28.342Z,8.40
2019-05-23T03:43:56.974Z,8.40
2019-05-23T03:46:27.449Z,8.20
2019-05-23T03:48:56.312Z,8.20
2019-05-23T03:51:25.149Z,8.20
2019-05-23T03:53:54.630Z,8.30
2019-05-23T03:56:25.049Z,8.40
2019-05-23T03:58:56.074Z,8.30
2019-05-23T04:01:45.519Z,8.30
2019-05-23T04:03:58.669Z,8.20
2019-05-23T04:06:28.354Z,8.30
2019-05-23T04:08:57.225Z,8.80
2019-05-23T04:11:25.995Z,8.70
2019-05-23T04:13:54.593Z,8.10
2019-05-23T04:16:23.321Z,8.00
2019-05-23T04:18:51.926Z,8.20
2019-05-23T04:33:49.096Z,8.30
2019-05-23T04:36:17.992Z,8.00
2019-05-23T04:38:47.067Z,8.00
2019-05-23T04:41:15.716Z,8.30
2019-05-23T04:43:44.337Z,8.00
2019-05-23T04:46:13.405Z,8.20
2019-05-23T04:51:10.854Z,8.20
2019-05-23T04:53:39.608Z,8.30
2019-05-23T04:56:08.417Z,8.40
2019-05-23T04:58:38.423Z,8.20
2019-05-23T05:01:07.267Z,8.30
2019-05-23T05:03:35.893Z,8.40
2019-05-23T05:06:04.501Z,8.60
2019-05-23T05:08:33.600Z,8.30
2019-05-23T05:13:30.816Z,8.50
2019-05-23T05:15:59.343Z,8.50
2019-05-23T05:18:29.294Z,8.50
2019-05-23T05:20:58.197Z,8.50
2019-05-23T05:25:55.008Z,8.70
2019-05-23T05:28:23.674Z,8.90
2019-05-23T05:30:52.745Z,8.90
2019-05-23T05:33:21.444Z,9.00
2019-05-23T05:35:50.162Z,8.60
2019-05-23T05:38:19.698Z,8.80
2019-05-23T05:40:48.220Z,8.90
2019-05-23T05:43:17.230Z,9.00
2019-05-23T05:45:45.927Z,8.90
2019-05-23T05:48:14.811Z,8.70
2019-05-23T05:53:12.584Z,9.00
2019-05-23T05:58:09.423Z,8.90
2019-05-23T06:00:39.867Z,9.10
2019-05-23T06:03:08.592Z,8.90
2019-05-23T06:05:55.319Z,8.90
2019-05-23T06:08:25.598Z,9.20
2019-05-23T06:10:54.136Z,9.30
2019-05-23T06:13:23.171Z,9.10
2019-05-23T06:15:53.103Z,9.20
2019-05-23T06:18:21.801Z,9.40
2019-05-23T06:20:50.419Z,9.90
2019-05-23T06:23:20.139Z,9.60
2019-05-23T06:25:48.735Z,9.60
2019-05-23T06:30:48.488Z,9.50
2019-05-23T06:33:23.187Z,9.80
2019-05-23T06:35:48.283Z,9.70
2019-05-23T06:38:17.456Z,10.00
2019-05-23T06:40:46.729Z,9.70
2019-05-23T06:43:15.405Z,9.90
2019-05-23T06:45:44.837Z,9.90
2019-05-23T06:48:15.345Z,10.80
2019-05-23T06:50:44.220Z,10.10
2019-05-23T06:53:12.845Z,10.20
2019-05-23T06:55:41.399Z,10.50
2019-05-23T06:58:10.006Z,10.50
2019-05-23T07:03:07.383Z,10.50
2019-05-23T07:05:37.792Z,10.80
2019-05-23T07:08:07.333Z,10.90
2019-05-23T07:10:36.624Z,10.90
2019-05-23T07:13:05.377Z,11.30
2019-05-23T07:15:34.072Z,11.10
2019-05-23T07:18:02.856Z,11.20
2019-05-23T07:20:31.705Z,11.30
2019-05-23T07:23:00.279Z,11.20
2019-05-23T07:27:57.862Z,11.20
2019-05-23T07:30:27.815Z,11.50
2019-05-23T07:32:57.144Z,11.60
2019-05-23T07:35:26.394Z,12.00
2019-05-23T07:37:55.025Z,12.10
2019-05-23T07:40:26.316Z,12.70
2019-05-23T07:42:55.374Z,12.40
2019-05-23T07:45:28.525Z,12.20
2019-05-23T07:47:57.576Z,12.40
2019-05-23T07:50:26.135Z,12.50
2019-05-23T07:52:56.714Z,12.90
2019-05-23T07:55:29.878Z,13.50
2019-05-23T07:57:58.555Z,13.20
2019-05-23T08:00:34.717Z,13.40
2019-05-23T08:03:05.361Z,13.50
2019-05-23T08:05:34.422Z,13.90
2019-05-23T08:08:04.327Z,14.20
2019-05-23T08:10:34.425Z,13.90
2019-05-23T08:13:03.335Z,14.20
2019-05-23T08:15:32.873Z,14.20
2019-05-23T08:18:01.955Z,14.00
2019-05-23T08:20:30.847Z,14.30
2019-05-23T08:25:28.095Z,14.40
2019-05-23T08:27:56.697Z,14.70
2019-05-23T08:30:25.609Z,14.70
2019-05-23T08:32:54.650Z,15.10
2019-05-23T08:35:23.207Z,15.00
2019-05-23T08:37:52.190Z,15.40
2019-05-23T08:40:22.500Z,15.60
2019-05-23T08:45:21.328Z,15.50
2019-05-23T08:47:50.543Z,15.50
2019-05-23T08:52:47.844Z,15.30
2019-05-23T08:55:26.637Z,15.30
2019-05-23T08:57:55.375Z,15.50
2019-05-23T09:00:29.609Z,15.70
2019-05-23T09:02:59.343Z,15.90
2019-05-23T09:05:33.025Z,16.20
2019-05-23T09:08:01.997Z,16.30
2019-05-23T09:10:31.129Z,16.60
2019-05-23T09:13:00.007Z,16.30
2019-05-23T09:15:28.654Z,16.30
2019-05-23T09:17:57.751Z,16.60
2019-05-23T09:20:26.573Z,16.30
2019-05-23T09:22:55.250Z,16.50
2019-05-23T09:25:23.885Z,16.40
2019-05-23T09:27:53.538Z,16.10
2019-05-23T09:30:23.009Z,16.60
2019-05-23T09:32:51.957Z,16.60
2019-05-23T09:35:22.297Z,16.60
2019-05-23T09:37:51.178Z,16.80
2019-05-23T09:42:48.152Z,17.70
2019-05-23T09:45:18.051Z,17.30
2019-05-23T09:47:51.002Z,17.50
2019-05-23T09:50:19.666Z,17.60
2019-05-23T09:52:48.257Z,17.30
2019-05-23T09:55:17.495Z,17.20
2019-05-23T09:57:46.082Z,17.10
2019-05-23T10:00:19.914Z,16.80
2019-05-23T10:02:48.523Z,16.60
2019-05-23T10:05:17.578Z,16.30
2019-05-23T10:07:46.093Z,16.50
2019-05-23T10:10:15.671Z,16.20
2019-05-23T10:12:44.339Z,16.20
2019-05-23T10:15:20.703Z,16.60
2019-05-23T10:17:49.350Z,16.70
2019-05-23T10:20:18.744Z,16.70
2019-05-23T10:22:48.085Z,16.70
2019-05-23T10:25:16.779Z,17.00
2019-05-23T10:27:45.357Z,17.50
2019-05-23T10:30:15.750Z,17.30
2019-05-23T10:32:44.422Z,17.70
2019-05-23T10:35:14.494Z,17.90
2019-05-23T10:37:43.138Z,18.00
2019-05-23T10:40:11.937Z,18.00
2019-05-23T10:45:09.571Z,17.60
2019-05-23T10:47:38.221Z,17.40
2019-05-23T10:50:10.161Z,17.60
2019-05-23T10:52:39.286Z,17.40
2019-05-23T10:55:08.383Z,17.60
2019-05-23T10:57:37.061Z,17.80
2019-05-23T11:00:09.699Z,17.50
2019-05-23T11:02:39.183Z,17.70
2019-05-23T11:05:13.148Z,17.70
2019-05-23T11:07:39.606Z,18.10
2019-05-23T11:10:09.042Z,18.30
2019-05-23T11:12:37.604Z,18.60
2019-05-23T11:15:07.294Z,18.40
2019-05-23T11:17:36.333Z,18.60
2019-05-23T11:20:06.994Z,18.40
2019-05-23T11:22:35.554Z,18.70
2019-05-23T11:25:06.882Z,18.70
2019-05-23T11:27:35.690Z,18.70
2019-05-23T11:30:06.906Z,18.90
2019-05-23T11:32:35.905Z,18.40
2019-05-23T11:35:05.189Z,18.50
2019-05-23T11:37:33.787Z,18.60
2019-05-23T11:40:02.436Z,18.40
2019-05-23T11:44:59.348Z,19.00
2019-05-23T11:47:31.649Z,19.40
2019-05-23T11:49:58.592Z,19.50
2019-05-23T11:52:27.691Z,19.30
2019-05-23T11:54:56.677Z,19.50
2019-05-23T11:57:25.408Z,19.40
2019-05-23T11:59:54.212Z,19.80
2019-05-23T12:02:33.017Z,20.00
2019-05-23T12:05:03.237Z,19.70
2019-05-23T12:10:00.206Z,20.10
2019-05-23T12:12:28.978Z,20.20
2019-05-23T12:14:57.783Z,20.30
2019-05-23T12:17:28.585Z,19.90
2019-05-23T12:19:57.134Z,19.70
2019-05-23T12:22:26.605Z,19.90
2019-05-23T12:24:55.249Z,19.80
2019-05-23T12:27:24.010Z,19.80
2019-05-23T12:29:52.551Z,19.60
2019-05-23T12:32:21.453Z,19.70
2019-05-23T12:35:08.442Z,19.70
2019-05-23T12:37:20.926Z,19.40
2019-05-23T12:39:49.922Z,19.50
2019-05-23T12:42:18.544Z,19.80
2019-05-23T12:44:47.089Z,20.00
2019-05-23T12:47:17.289Z,20.10
2019-05-23T12:49:47.643Z,19.80
2019-05-23T12:52:16.273Z,20.00
2019-05-23T12:54:44.822Z,20.20
2019-05-23T12:57:14.729Z,20.00
2019-05-23T12:59:43.378Z,20.10
2019-05-23T13:02:13.958Z,19.80
2019-05-23T13:07:11.513Z,20.00
2019-05-23T13:09:40.199Z,20.50
2019-05-23T13:12:09.122Z,20.50
2019-05-23T13:14:37.739Z,20.20
2019-05-23T13:17:06.631Z,20.30
2019-05-23T13:19:35.537Z,20.90
2019-05-23T13:22:04.521Z,20.60
2019-05-23T13:29:31.654Z,20.60
2019-05-23T13:32:00.332Z,20.70
2019-05-23T13:34:28.896Z,20.50
2019-05-23T13:36:57.748Z,20.40
2019-05-23T13:39:26.816Z,20.30
2019-05-23T13:41:55.692Z,20.40
2019-05-23T13:44:34.571Z,20.10
2019-05-23T13:46:54.750Z,20.50
2019-05-23T13:51:52.913Z,20.40
2019-05-23T13:54:22.098Z,19.90
2019-05-23T13:56:51.526Z,19.70
2019-05-23T13:59:20.504Z,20.00
2019-05-23T14:01:49.303Z,20.10
2019-05-23T14:06:46.386Z,20.30
2019-05-23T14:11:45.065Z,20.60
2019-05-23T14:16:44.111Z,20.90
2019-05-23T14:19:13.223Z,21.10
2019-05-23T14:21:41.893Z,20.70
2019-05-23T14:24:10.529Z,21.10
2019-05-23T14:26:52.787Z,21.30
2019-05-23T14:29:21.414Z,21.60
2019-05-23T14:31:54.591Z,21.20
2019-05-23T14:34:23.288Z,21.60
2019-05-23T14:36:53.545Z,21.40
2019-05-23T14:39:26.263Z,21.10
2019-05-23T14:41:59.404Z,21.20
2019-05-23T14:44:28.148Z,21.30
2019-05-23T14:46:58.410Z,20.80
2019-05-23T14:49:43.946Z,21.20
2019-05-23T14:52:14.134Z,20.80
2019-05-23T14:54:44.119Z,21.10
2019-05-23T14:57:12.988Z,21.10
2019-05-23T14:59:42.466Z,20.80
2019-05-23T15:02:13.111Z,21.30
2019-05-23T15:04:41.741Z,20.90
2019-05-23T15:07:10.417Z,21.10
2019-05-23T15:09:38.981Z,21.30
2019-05-23T15:12:07.869Z,20.90
2019-05-23T15:14:36.542Z,20.90
2019-05-23T15:17:05.425Z,20.80
2019-05-23T15:19:44.081Z,21.30
2019-05-23T15:24:32.949Z,21.30
2019-05-23T15:27:01.592Z,20.90
2019-05-23T15:29:30.253Z,21.00
2019-05-23T15:32:02.224Z,20.90
2019-05-23T15:34:29.071Z,20.80
2019-05-23T15:36:57.604Z,21.00
2019-05-23T15:39:27.085Z,21.30
2019-05-23T15:41:55.649Z,20.90
2019-05-23T15:44:28.672Z,20.80
2019-05-23T15:49:23.259Z,20.90
2019-05-23T15:51:56.289Z,21.40
2019-05-23T15:54:26.556Z,20.70
2019-05-23T15:56:56.769Z,20.60
2019-05-23T15:59:32.684Z,20.90
2019-05-23T16:02:15.133Z,21.50
2019-05-23T16:04:43.814Z,20.60
2019-05-23T16:07:13.414Z,21.00
2019-05-23T16:09:41.955Z,21.20
2019-05-23T16:12:11.935Z,20.40
2019-05-23T16:14:40.596Z,20.40
2019-05-23T16:17:09.689Z,20.50
2019-05-23T16:19:38.334Z,20.80
2019-05-23T16:22:07.709Z,20.90
2019-05-23T16:24:36.314Z,20.60
2019-05-23T16:34:34.350Z,20.50
2019-05-23T16:37:02.989Z,20.50
2019-05-23T16:39:46.085Z,20.40
2019-05-23T16:42:02.634Z,20.50
2019-05-23T16:44:31.335Z,20.90
2019-05-23T16:47:00.108Z,20.80
2019-05-23T16:49:28.670Z,20.80
2019-05-23T16:51:57.295Z,20.70
2019-05-23T16:54:27.471Z,20.70
2019-05-23T16:57:00.625Z,20.70
2019-05-23T16:59:36.626Z,20.70
2019-05-23T17:02:23.726Z,20.60
2019-05-23T17:05:08.419Z,20.80
2019-05-23T17:07:25.878Z,20.70
2019-05-23T17:10:07.515Z,20.80
2019-05-23T17:12:44.689Z,20.50
2019-05-23T17:15:18.660Z,20.50
2019-05-23T17:18:03.251Z,20.10
2019-05-23T17:20:49.053Z,20.40
2019-05-23T17:23:22.331Z,19.90
2019-05-23T17:25:52.783Z,20.30
2019-05-23T17:28:26.288Z,20.30
2019-05-23T17:33:26.003Z,20.20
2019-05-23T17:35:54.613Z,20.20
2019-05-23T17:38:24.170Z,19.80
2019-05-23T17:40:52.730Z,19.90
2019-05-23T17:43:21.863Z,19.70
2019-05-23T17:45:50.969Z,19.70
2019-05-23T17:48:19.910Z,19.60
2019-05-23T17:50:48.528Z,19.30
2019-05-23T17:53:17.414Z,19.10
2019-05-23T17:55:46.650Z,19.20
2019-05-23T17:58:17.421Z,19.50
2019-05-23T18:00:47.591Z,19.20
2019-05-23T18:03:16.596Z,19.40
2019-05-23T18:05:45.280Z,19.10
2019-05-23T18:08:15.076Z,19.10
2019-05-23T18:10:45.946Z,19.10
2019-05-23T18:13:15.344Z,19.10
2019-05-23T18:15:44.323Z,18.60
2019-05-23T18:18:13.520Z,18.80
2019-05-23T18:20:43.045Z,18.20
2019-05-23T18:23:11.736Z,18.10
2019-05-23T18:25:41.321Z,18.20
2019-05-23T18:28:12.195Z,18.40
2019-05-23T18:30:54.280Z,17.90
2019-05-23T18:33:24.251Z,17.80
2019-05-23T18:35:53.428Z,18.10
2019-05-23T18:38:22.688Z,18.20
2019-05-23T18:41:02.267Z,18.10
2019-05-23T18:43:23.533Z,17.40
2019-05-23T18:45:53.785Z,18.10
2019-05-23T18:48:22.352Z,17.80
2019-05-23T18:50:51.228Z,17.40
2019-05-23T18:53:19.863Z,17.40
2019-05-23T18:55:48.472Z,17.00
2019-05-23T18:58:19.510Z,16.90
2019-05-23T19:00:57.835Z,16.70
2019-05-23T19:03:27.200Z,16.80
2019-05-23T19:05:56.104Z,16.90
2019-05-23T19:08:24.739Z,17.00
2019-05-23T19:10:53.520Z,16.30
2019-05-23T19:13:22.210Z,16.70
2019-05-23T19:15:51.077Z,16.50
2019-05-23T19:18:19.789Z,16.60
2019-05-23T19:23:19.708Z,15.90
2019-05-23T19:25:49.974Z,16.50
2019-05-23T19:28:19.321Z,16.30
2019-05-23T19:30:48.307Z,16.00
2019-05-23T19:33:16.974Z,15.80
2019-05-23T19:35:47.499Z,16.20
2019-05-23T19:38:16.225Z,16.30
2019-05-23T19:40:45.418Z,15.70
2019-05-23T19:43:15.843Z,15.40
2019-05-23T19:45:44.420Z,15.30
2019-05-23T19:48:13.522Z,15.30
2019-05-23T19:50:43.827Z,15.30
2019-05-23T19:53:12.390Z,14.90
2019-05-23T19:55:40.967Z,15.40
2019-05-23T19:58:10.676Z,14.80
2019-05-23T20:00:40.895Z,15.10
2019-05-23T20:03:09.630Z,15.10
2019-05-23T20:05:42.842Z,14.90
2019-05-23T20:08:11.606Z,14.70
2019-05-23T20:10:40.616Z,15.10
2019-05-23T20:13:09.331Z,14.90
2019-05-23T20:15:38.008Z,14.90
2019-05-23T20:18:06.818Z,14.40
2019-05-23T20:20:36.752Z,14.80
2019-05-23T20:23:05.315Z,14.20
2019-05-23T20:25:34.383Z,14.10
2019-05-23T20:28:03.018Z,14.10
2019-05-23T20:30:47.715Z,14.60
2019-05-23T20:33:16.370Z,14.10
2019-05-23T20:35:45.104Z,14.10
2019-05-23T20:38:14.049Z,14.50
2019-05-23T20:40:42.648Z,14.00
2019-05-23T20:43:11.461Z,14.20
2019-05-23T20:45:40.735Z,14.20
2019-05-23T20:48:09.619Z,14.20
2019-05-23T20:53:06.595Z,13.90
2019-05-23T20:55:36.138Z,14.10
2019-05-23T20:58:05.806Z,13.90
2019-05-23T21:00:36.116Z,13.30
2019-05-23T21:03:06.455Z,13.50
2019-05-23T21:05:35.161Z,13.40
2019-05-23T21:08:03.834Z,13.40
2019-05-23T21:10:44.105Z,13.40
2019-05-23T21:13:12.714Z,13.20
2019-05-23T21:15:41.310Z,12.90
2019-05-23T21:18:09.888Z,13.20
2019-05-23T21:23:06.679Z,13.40
2019-05-23T21:25:37.355Z,12.80
2019-05-23T21:28:06.533Z,13.30
2019-05-23T21:33:03.786Z,13.30
2019-05-23T21:35:32.410Z,12.80
2019-05-23T21:38:01.050Z,12.40
2019-05-23T21:40:35.476Z,12.40
2019-05-23T21:43:04.962Z,12.60
2019-05-23T21:45:33.836Z,12.70
2019-05-23T21:48:02.466Z,12.70
2019-05-23T21:50:31.167Z,12.80
2019-05-23T21:52:59.735Z,12.80
2019-05-23T21:58:12.342Z,12.50
2019-05-23T22:01:06.866Z,12.30
2019-05-23T22:03:38.077Z,12.50
2019-05-23T22:06:09.780Z,12.50
2019-05-23T22:11:07.456Z,12.20
2019-05-23T22:13:35.986Z,12.40
2019-05-23T22:16:04.691Z,12.10
2019-05-23T22:18:33.304Z,12.40
2019-05-23T22:21:01.902Z,11.60
2019-05-23T22:23:30.486Z,12.40
2019-05-23T22:25:59.207Z,11.70
2019-05-23T22:28:27.743Z,11.80
2019-05-23T22:30:56.681Z,12.00
2019-05-23T22:33:27.126Z,12.20
2019-05-23T22:35:56.127Z,11.80
2019-05-23T22:38:24.662Z,11.80
2019-05-23T22:40:53.224Z,11.80
2019-05-23T22:43:21.828Z,11.90
2019-05-23T22:45:50.455Z,12.10
2019-05-23T22:50:47.232Z,12.00
2019-05-23T22:53:15.771Z,11.80
2019-05-23T22:55:44.336Z,11.40
2019-05-23T22:58:12.947Z,11.30
2019-05-23T23:00:43.147Z,11.20
2019-05-23T23:03:11.753Z,11.50
2019-05-23T23:05:40.311Z,11.10
2019-05-23T23:10:37.154Z,11.40
2019-05-23T23:13:05.838Z,11.50
2019-05-23T23:15:34.641Z,11.50
2019-05-23T23:18:03.243Z,11.50
2019-05-23T23:20:32.248Z,11.40
2019-05-23T23:23:00.872Z,11.50
2019-05-23T23:25:29.423Z,11.40
2019-05-23T23:27:57.958Z,10.90
2019-05-23T23:30:28.152Z,10.90
2019-05-23T23:32:56.688Z,11.10
2019-05-23T23:35:25.380Z,10.90
2019-05-23T23:37:54.003Z,10.80
2019-05-23T23:40:22.603Z,10.90
2019-05-23T23:42:51.163Z,11.10
2019-05-23T23:45:37.200Z,11.00
2019-05-23T23:48:23.751Z,11.10
2019-05-23T23:51:10.601Z,10.70
2019-05-23T23:56:43.469Z,10.80
2019-05-23T23:59:11.434Z,10.90
